sensor_id;sensor_type;location;lat;lon;timestamp;P1;durP1;ratioP1;P2;durP2;ratioP2
16294;SDS011;8255;49.560;8.244;2022-11-20T00:02:00;21.43;;;16.10;;
16294;SDS011;8255;49.560;8.244;2022-11-20T00:04:26;20.43;;;15.30;;
16294;SDS011;8255;49.560;8.244;2022-11-20T00:06:53;21.27;;;16.10;;
16294;SDS011;8255;49.560;8.244;2022-11-20T00:09:20;23.23;;;15.93;;
16294;SDS011;8255;49.560;8.244;2022-11-20T00:11:47;20.23;;;14.97;;
16294;SDS011;8255;49.560;8.244;2022-11-20T00:14:13;21.23;;;16.03;;
16294;SDS011;8255;49.560;8.244;2022-11-20T00:16:39;20.97;;;15.57;;
16294;SDS011;8255;49.560;8.244;2022-11-20T00:19:06;25.20;;;16.30;;
16294;SDS011;8255;49.560;8.244;2022-11-20T00:21:32;23.27;;;16.47;;
16294;SDS011;8255;49.560;8.244;2022-11-20T00:23:58;22.70;;;16.73;;
16294;SDS011;8255;49.560;8.244;2022-11-20T00:26:26;22.53;;;16.23;;
16294;SDS011;8255;49.560;8.244;2022-11-20T00:28:54;23.70;;;17.10;;
16294;SDS011;8255;49.560;8.244;2022-11-20T00:31:20;21.67;;;16.03;;
16294;SDS011;8255;49.560;8.244;2022-11-20T00:33:47;23.70;;;15.83;;
16294;SDS011;8255;49.560;8.244;2022-11-20T00:36:14;24.03;;;16.63;;
16294;SDS011;8255;49.560;8.244;2022-11-20T00:38:40;21.93;;;16.20;;
16294;SDS011;8255;49.560;8.244;2022-11-20T00:41:07;22.53;;;16.83;;
16294;SDS011;8255;49.560;8.244;2022-11-20T00:43:36;22.73;;;15.73;;
16294;SDS011;8255;49.560;8.244;2022-11-20T00:46:03;21.13;;;15.50;;
16294;SDS011;8255;49.560;8.244;2022-11-20T00:48:30;21.23;;;15.77;;
16294;SDS011;8255;49.560;8.244;2022-11-20T00:50:57;23.60;;;16.33;;
16294;SDS011;8255;49.560;8.244;2022-11-20T00:53:23;20.67;;;14.70;;
16294;SDS011;8255;49.560;8.244;2022-11-20T00:55:53;21.47;;;15.43;;
16294;SDS011;8255;49.560;8.244;2022-11-20T00:58:20;21.43;;;15.50;;
16294;SDS011;8255;49.560;8.244;2022-11-20T01:00:47;23.70;;;15.43;;
16294;SDS011;8255;49.560;8.244;2022-11-20T01:03:15;20.07;;;14.57;;
16294;SDS011;8255;49.560;8.244;2022-11-20T01:05:41;20.70;;;14.93;;
16294;SDS011;8255;49.560;8.244;2022-11-20T01:08:07;20.47;;;15.40;;
16294;SDS011;8255;49.560;8.244;2022-11-20T01:10:33;21.80;;;15.53;;
16294;SDS011;8255;49.560;8.244;2022-11-20T01:13:00;21.47;;;14.90;;
16294;SDS011;8255;49.560;8.244;2022-11-20T01:15:40;23.10;;;16.23;;
16294;SDS011;8255;49.560;8.244;2022-11-20T01:18:08;22.00;;;15.93;;
16294;SDS011;8255;49.560;8.244;2022-11-20T01:20:34;19.90;;;14.97;;
16294;SDS011;8255;49.560;8.244;2022-11-20T01:23:01;19.97;;;14.47;;
16294;SDS011;8255;49.560;8.244;2022-11-20T01:25:28;20.63;;;14.70;;
16294;SDS011;8255;49.560;8.244;2022-11-20T01:27:54;20.03;;;14.60;;
16294;SDS011;8255;49.560;8.244;2022-11-20T01:30:21;22.33;;;15.33;;
16294;SDS011;8255;49.560;8.244;2022-11-20T01:32:47;20.20;;;14.17;;
16294;SDS011;8255;49.560;8.244;2022-11-20T01:35:15;22.23;;;16.57;;
16294;SDS011;8255;49.560;8.244;2022-11-20T01:37:41;22.97;;;15.93;;
16294;SDS011;8255;49.560;8.244;2022-11-20T01:40:08;25.60;;;16.23;;
16294;SDS011;8255;49.560;8.244;2022-11-20T01:42:35;22.33;;;15.67;;
16294;SDS011;8255;49.560;8.244;2022-11-20T01:48:04;20.67;;;15.03;;
16294;SDS011;8255;49.560;8.244;2022-11-20T01:50:32;21.77;;;15.30;;
16294;SDS011;8255;49.560;8.244;2022-11-20T01:53:00;22.93;;;15.57;;
16294;SDS011;8255;49.560;8.244;2022-11-20T01:55:28;20.83;;;15.50;;
16294;SDS011;8255;49.560;8.244;2022-11-20T01:57:56;22.10;;;15.87;;
16294;SDS011;8255;49.560;8.244;2022-11-20T02:00:23;24.83;;;16.33;;
16294;SDS011;8255;49.560;8.244;2022-11-20T02:02:50;19.47;;;14.93;;
16294;SDS011;8255;49.560;8.244;2022-11-20T02:05:18;21.33;;;15.37;;
16294;SDS011;8255;49.560;8.244;2022-11-20T02:07:47;21.00;;;14.47;;
16294;SDS011;8255;49.560;8.244;2022-11-20T02:10:14;19.50;;;14.57;;
16294;SDS011;8255;49.560;8.244;2022-11-20T02:12:40;20.27;;;15.43;;
16294;SDS011;8255;49.560;8.244;2022-11-20T02:15:24;20.57;;;14.93;;
16294;SDS011;8255;49.560;8.244;2022-11-20T02:17:51;21.07;;;15.87;;
16294;SDS011;8255;49.560;8.244;2022-11-20T02:20:17;21.23;;;15.00;;
16294;SDS011;8255;49.560;8.244;2022-11-20T02:22:45;20.90;;;14.97;;
16294;SDS011;8255;49.560;8.244;2022-11-20T02:25:15;22.20;;;15.33;;
16294;SDS011;8255;49.560;8.244;2022-11-20T02:27:41;20.83;;;15.03;;
16294;SDS011;8255;49.560;8.244;2022-11-20T02:30:08;21.20;;;14.67;;
16294;SDS011;8255;49.560;8.244;2022-11-20T02:32:36;21.67;;;15.60;;
16294;SDS011;8255;49.560;8.244;2022-11-20T02:35:07;22.37;;;14.47;;
16294;SDS011;8255;49.560;8.244;2022-11-20T02:37:34;21.97;;;14.77;;
16294;SDS011;8255;49.560;8.244;2022-11-20T02:40:02;22.93;;;15.00;;
16294;SDS011;8255;49.560;8.244;2022-11-20T02:42:30;20.87;;;14.87;;
16294;SDS011;8255;49.560;8.244;2022-11-20T02:44:56;20.83;;;14.97;;
16294;SDS011;8255;49.560;8.244;2022-11-20T02:47:22;22.50;;;15.50;;
16294;SDS011;8255;49.560;8.244;2022-11-20T02:49:49;21.43;;;15.43;;
16294;SDS011;8255;49.560;8.244;2022-11-20T02:52:15;19.63;;;14.43;;
16294;SDS011;8255;49.560;8.244;2022-11-20T02:54:41;20.17;;;14.90;;
16294;SDS011;8255;49.560;8.244;2022-11-20T02:57:08;19.37;;;14.07;;
16294;SDS011;8255;49.560;8.244;2022-11-20T02:59:36;20.33;;;14.73;;
16294;SDS011;8255;49.560;8.244;2022-11-20T03:02:02;22.77;;;15.10;;
16294;SDS011;8255;49.560;8.244;2022-11-20T03:04:28;20.20;;;14.33;;
16294;SDS011;8255;49.560;8.244;2022-11-20T03:06:54;22.27;;;14.83;;
16294;SDS011;8255;49.560;8.244;2022-11-20T03:09:21;21.80;;;15.03;;
16294;SDS011;8255;49.560;8.244;2022-11-20T03:11:47;21.10;;;14.13;;
16294;SDS011;8255;49.560;8.244;2022-11-20T03:14:13;20.70;;;14.80;;
16294;SDS011;8255;49.560;8.244;2022-11-20T03:16:41;21.70;;;14.57;;
16294;SDS011;8255;49.560;8.244;2022-11-20T03:19:08;20.50;;;14.50;;
16294;SDS011;8255;49.560;8.244;2022-11-20T03:21:34;21.97;;;15.30;;
16294;SDS011;8255;49.560;8.244;2022-11-20T03:24:00;21.43;;;15.00;;
16294;SDS011;8255;49.560;8.244;2022-11-20T03:26:27;20.87;;;14.07;;
16294;SDS011;8255;49.560;8.244;2022-11-20T03:28:54;21.10;;;15.37;;
16294;SDS011;8255;49.560;8.244;2022-11-20T03:31:21;20.63;;;14.83;;
16294;SDS011;8255;49.560;8.244;2022-11-20T03:33:49;21.10;;;15.03;;
16294;SDS011;8255;49.560;8.244;2022-11-20T03:36:16;21.37;;;14.70;;
16294;SDS011;8255;49.560;8.244;2022-11-20T03:38:43;21.00;;;14.47;;
16294;SDS011;8255;49.560;8.244;2022-11-20T03:41:10;22.17;;;15.30;;
16294;SDS011;8255;49.560;8.244;2022-11-20T03:43:37;21.77;;;15.47;;
16294;SDS011;8255;49.560;8.244;2022-11-20T03:46:04;21.33;;;15.30;;
16294;SDS011;8255;49.560;8.244;2022-11-20T03:48:31;20.67;;;14.40;;
16294;SDS011;8255;49.560;8.244;2022-11-20T03:51:07;20.67;;;15.03;;
16294;SDS011;8255;49.560;8.244;2022-11-20T03:53:34;20.70;;;13.90;;
16294;SDS011;8255;49.560;8.244;2022-11-20T03:56:00;19.73;;;14.83;;
16294;SDS011;8255;49.560;8.244;2022-11-20T03:58:26;22.40;;;15.57;;
16294;SDS011;8255;49.560;8.244;2022-11-20T04:00:53;21.07;;;14.97;;
16294;SDS011;8255;49.560;8.244;2022-11-20T04:03:19;22.97;;;15.73;;
16294;SDS011;8255;49.560;8.244;2022-11-20T04:05:45;23.37;;;15.70;;
16294;SDS011;8255;49.560;8.244;2022-11-20T04:08:13;21.13;;;14.40;;
16294;SDS011;8255;49.560;8.244;2022-11-20T04:10:39;22.07;;;15.73;;
16294;SDS011;8255;49.560;8.244;2022-11-20T04:13:05;18.87;;;14.23;;
16294;SDS011;8255;49.560;8.244;2022-11-20T04:15:32;21.93;;;15.40;;
16294;SDS011;8255;49.560;8.244;2022-11-20T04:17:58;19.73;;;14.27;;
16294;SDS011;8255;49.560;8.244;2022-11-20T04:20:24;20.07;;;14.17;;
16294;SDS011;8255;49.560;8.244;2022-11-20T04:22:52;19.00;;;14.30;;
16294;SDS011;8255;49.560;8.244;2022-11-20T04:25:20;20.43;;;14.37;;
16294;SDS011;8255;49.560;8.244;2022-11-20T04:27:46;21.70;;;15.07;;
16294;SDS011;8255;49.560;8.244;2022-11-20T04:30:13;20.90;;;14.40;;
16294;SDS011;8255;49.560;8.244;2022-11-20T04:32:39;20.80;;;14.50;;
16294;SDS011;8255;49.560;8.244;2022-11-20T04:35:05;22.23;;;14.77;;
16294;SDS011;8255;49.560;8.244;2022-11-20T04:37:32;19.83;;;14.30;;
16294;SDS011;8255;49.560;8.244;2022-11-20T04:39:58;23.33;;;15.63;;
16294;SDS011;8255;49.560;8.244;2022-11-20T04:42:26;21.90;;;15.43;;
16294;SDS011;8255;49.560;8.244;2022-11-20T04:44:55;21.80;;;15.00;;
16294;SDS011;8255;49.560;8.244;2022-11-20T04:47:21;20.70;;;15.47;;
16294;SDS011;8255;49.560;8.244;2022-11-20T04:49:48;22.83;;;15.77;;
16294;SDS011;8255;49.560;8.244;2022-11-20T04:52:14;19.80;;;13.70;;
16294;SDS011;8255;49.560;8.244;2022-11-20T04:54:41;20.67;;;14.53;;
16294;SDS011;8255;49.560;8.244;2022-11-20T04:57:07;20.90;;;15.10;;
16294;SDS011;8255;49.560;8.244;2022-11-20T04:59:35;19.20;;;13.67;;
16294;SDS011;8255;49.560;8.244;2022-11-20T05:02:01;21.10;;;14.97;;
16294;SDS011;8255;49.560;8.244;2022-11-20T05:04:27;19.00;;;14.50;;
16294;SDS011;8255;49.560;8.244;2022-11-20T05:06:53;19.97;;;13.70;;
16294;SDS011;8255;49.560;8.244;2022-11-20T05:09:20;23.27;;;15.00;;
16294;SDS011;8255;49.560;8.244;2022-11-20T05:11:46;18.37;;;14.23;;
16294;SDS011;8255;49.560;8.244;2022-11-20T05:14:12;20.10;;;14.07;;
16294;SDS011;8255;49.560;8.244;2022-11-20T05:16:40;20.70;;;14.73;;
16294;SDS011;8255;49.560;8.244;2022-11-20T05:19:06;20.30;;;13.77;;
16294;SDS011;8255;49.560;8.244;2022-11-20T05:21:33;19.67;;;14.07;;
16294;SDS011;8255;49.560;8.244;2022-11-20T05:23:59;20.67;;;14.70;;
16294;SDS011;8255;49.560;8.244;2022-11-20T05:26:25;18.50;;;13.43;;
16294;SDS011;8255;49.560;8.244;2022-11-20T05:28:51;18.67;;;14.63;;
16294;SDS011;8255;49.560;8.244;2022-11-20T05:31:19;18.80;;;13.70;;
16294;SDS011;8255;49.560;8.244;2022-11-20T05:33:47;19.73;;;13.87;;
16294;SDS011;8255;49.560;8.244;2022-11-20T05:36:13;20.53;;;14.50;;
16294;SDS011;8255;49.560;8.244;2022-11-20T05:38:40;22.23;;;15.33;;
16294;SDS011;8255;49.560;8.244;2022-11-20T05:41:07;21.47;;;14.23;;
16294;SDS011;8255;49.560;8.244;2022-11-20T05:43:34;19.13;;;14.27;;
16294;SDS011;8255;49.560;8.244;2022-11-20T05:46:01;21.10;;;14.23;;
16294;SDS011;8255;49.560;8.244;2022-11-20T05:48:27;19.83;;;13.70;;
16294;SDS011;8255;49.560;8.244;2022-11-20T05:50:55;17.87;;;13.73;;
16294;SDS011;8255;49.560;8.244;2022-11-20T05:53:22;19.50;;;13.83;;
16294;SDS011;8255;49.560;8.244;2022-11-20T05:55:55;18.77;;;13.87;;
16294;SDS011;8255;49.560;8.244;2022-11-20T05:58:21;17.50;;;12.50;;
16294;SDS011;8255;49.560;8.244;2022-11-20T06:00:48;18.37;;;13.43;;
16294;SDS011;8255;49.560;8.244;2022-11-20T06:03:14;17.93;;;13.13;;
16294;SDS011;8255;49.560;8.244;2022-11-20T06:05:41;18.10;;;13.67;;
16294;SDS011;8255;49.560;8.244;2022-11-20T06:08:08;18.27;;;12.67;;
16294;SDS011;8255;49.560;8.244;2022-11-20T06:10:35;19.17;;;13.87;;
16294;SDS011;8255;49.560;8.244;2022-11-20T06:13:01;17.67;;;13.43;;
16294;SDS011;8255;49.560;8.244;2022-11-20T06:15:27;19.37;;;13.50;;
16294;SDS011;8255;49.560;8.244;2022-11-20T06:17:54;18.50;;;13.60;;
16294;SDS011;8255;49.560;8.244;2022-11-20T06:20:21;19.93;;;13.97;;
16294;SDS011;8255;49.560;8.244;2022-11-20T06:22:47;18.93;;;14.03;;
16294;SDS011;8255;49.560;8.244;2022-11-20T06:25:15;19.10;;;13.67;;
16294;SDS011;8255;49.560;8.244;2022-11-20T06:27:42;19.37;;;13.20;;
16294;SDS011;8255;49.560;8.244;2022-11-20T06:30:08;17.53;;;13.17;;
16294;SDS011;8255;49.560;8.244;2022-11-20T06:32:35;19.50;;;13.50;;
16294;SDS011;8255;49.560;8.244;2022-11-20T06:35:01;18.53;;;14.10;;
16294;SDS011;8255;49.560;8.244;2022-11-20T06:37:28;19.40;;;13.70;;
16294;SDS011;8255;49.560;8.244;2022-11-20T06:39:54;18.50;;;13.47;;
16294;SDS011;8255;49.560;8.244;2022-11-20T06:42:22;19.33;;;12.73;;
16294;SDS011;8255;49.560;8.244;2022-11-20T06:44:48;17.30;;;13.13;;
16294;SDS011;8255;49.560;8.244;2022-11-20T06:47:14;19.13;;;13.63;;
16294;SDS011;8255;49.560;8.244;2022-11-20T06:49:40;17.47;;;13.07;;
16294;SDS011;8255;49.560;8.244;2022-11-20T06:52:07;17.60;;;12.97;;
16294;SDS011;8255;49.560;8.244;2022-11-20T06:54:33;16.83;;;12.50;;
16294;SDS011;8255;49.560;8.244;2022-11-20T06:56:59;19.23;;;13.23;;
16294;SDS011;8255;49.560;8.244;2022-11-20T06:59:27;18.23;;;13.60;;
16294;SDS011;8255;49.560;8.244;2022-11-20T07:01:53;19.37;;;14.00;;
16294;SDS011;8255;49.560;8.244;2022-11-20T07:04:20;19.00;;;14.03;;
16294;SDS011;8255;49.560;8.244;2022-11-20T07:06:46;18.50;;;13.07;;
16294;SDS011;8255;49.560;8.244;2022-11-20T07:09:13;18.07;;;13.43;;
16294;SDS011;8255;49.560;8.244;2022-11-20T07:11:39;16.93;;;13.03;;
16294;SDS011;8255;49.560;8.244;2022-11-20T07:14:05;19.00;;;13.57;;
16294;SDS011;8255;49.560;8.244;2022-11-20T07:16:33;18.80;;;13.50;;
16294;SDS011;8255;49.560;8.244;2022-11-20T07:18:59;18.87;;;13.40;;
16294;SDS011;8255;49.560;8.244;2022-11-20T07:21:26;18.63;;;13.23;;
16294;SDS011;8255;49.560;8.244;2022-11-20T07:23:52;17.60;;;13.87;;
16294;SDS011;8255;49.560;8.244;2022-11-20T07:26:18;18.37;;;13.20;;
16294;SDS011;8255;49.560;8.244;2022-11-20T07:28:45;18.13;;;12.87;;
16294;SDS011;8255;49.560;8.244;2022-11-20T07:31:11;16.60;;;12.77;;
16294;SDS011;8255;49.560;8.244;2022-11-20T07:33:39;18.00;;;12.57;;
16294;SDS011;8255;49.560;8.244;2022-11-20T07:36:06;15.10;;;11.97;;
16294;SDS011;8255;49.560;8.244;2022-11-20T07:38:32;16.40;;;12.60;;
16294;SDS011;8255;49.560;8.244;2022-11-20T07:40:58;17.63;;;13.30;;
16294;SDS011;8255;49.560;8.244;2022-11-20T07:43:26;18.60;;;15.70;;
16294;SDS011;8255;49.560;8.244;2022-11-20T07:45:54;15.07;;;12.33;;
16294;SDS011;8255;49.560;8.244;2022-11-20T07:48:21;16.47;;;12.40;;
16294;SDS011;8255;49.560;8.244;2022-11-20T07:50:48;17.47;;;12.50;;
16294;SDS011;8255;49.560;8.244;2022-11-20T07:53:14;14.00;;;10.90;;
16294;SDS011;8255;49.560;8.244;2022-11-20T07:55:45;15.83;;;11.67;;
16294;SDS011;8255;49.560;8.244;2022-11-20T07:58:13;16.10;;;11.80;;
16294;SDS011;8255;49.560;8.244;2022-11-20T08:00:40;16.07;;;11.93;;
16294;SDS011;8255;49.560;8.244;2022-11-20T08:03:06;18.20;;;13.07;;
16294;SDS011;8255;49.560;8.244;2022-11-20T08:05:33;17.97;;;12.77;;
16294;SDS011;8255;49.560;8.244;2022-11-20T08:08:01;16.20;;;12.53;;
16294;SDS011;8255;49.560;8.244;2022-11-20T08:10:27;18.70;;;14.20;;
16294;SDS011;8255;49.560;8.244;2022-11-20T08:12:53;18.50;;;13.77;;
16294;SDS011;8255;49.560;8.244;2022-11-20T08:15:39;16.73;;;12.80;;
16294;SDS011;8255;49.560;8.244;2022-11-20T08:18:06;17.10;;;12.33;;
16294;SDS011;8255;49.560;8.244;2022-11-20T08:20:33;15.60;;;12.57;;
16294;SDS011;8255;49.560;8.244;2022-11-20T08:23:02;20.33;;;13.60;;
16294;SDS011;8255;49.560;8.244;2022-11-20T08:25:30;17.87;;;13.13;;
16294;SDS011;8255;49.560;8.244;2022-11-20T08:27:57;18.87;;;13.17;;
16294;SDS011;8255;49.560;8.244;2022-11-20T08:30:23;17.20;;;12.97;;
16294;SDS011;8255;49.560;8.244;2022-11-20T08:32:49;18.20;;;12.97;;
16294;SDS011;8255;49.560;8.244;2022-11-20T08:35:16;20.87;;;14.43;;
16294;SDS011;8255;49.560;8.244;2022-11-20T08:37:45;17.53;;;12.87;;
16294;SDS011;8255;49.560;8.244;2022-11-20T08:40:13;18.83;;;13.67;;
16294;SDS011;8255;49.560;8.244;2022-11-20T08:42:45;17.50;;;11.60;;
16294;SDS011;8255;49.560;8.244;2022-11-20T08:45:11;20.10;;;14.30;;
16294;SDS011;8255;49.560;8.244;2022-11-20T08:47:38;21.57;;;14.80;;
16294;SDS011;8255;49.560;8.244;2022-11-20T08:50:04;18.53;;;13.77;;
16294;SDS011;8255;49.560;8.244;2022-11-20T08:52:31;15.83;;;12.70;;
16294;SDS011;8255;49.560;8.244;2022-11-20T08:54:57;17.50;;;13.27;;
16294;SDS011;8255;49.560;8.244;2022-11-20T08:57:25;15.43;;;12.47;;
16294;SDS011;8255;49.560;8.244;2022-11-20T08:59:51;17.07;;;13.77;;
16294;SDS011;8255;49.560;8.244;2022-11-20T09:02:18;17.97;;;13.47;;
16294;SDS011;8255;49.560;8.244;2022-11-20T09:04:44;16.83;;;12.90;;
16294;SDS011;8255;49.560;8.244;2022-11-20T09:07:11;18.20;;;13.27;;
16294;SDS011;8255;49.560;8.244;2022-11-20T09:09:37;18.30;;;13.30;;
16294;SDS011;8255;49.560;8.244;2022-11-20T09:12:04;21.43;;;15.00;;
16294;SDS011;8255;49.560;8.244;2022-11-20T09:14:31;19.83;;;14.43;;
16294;SDS011;8255;49.560;8.244;2022-11-20T09:16:58;19.17;;;14.17;;
16294;SDS011;8255;49.560;8.244;2022-11-20T09:19:25;19.40;;;14.40;;
16294;SDS011;8255;49.560;8.244;2022-11-20T09:21:51;21.47;;;14.57;;
16294;SDS011;8255;49.560;8.244;2022-11-20T09:24:18;19.90;;;14.40;;
16294;SDS011;8255;49.560;8.244;2022-11-20T09:26:45;19.53;;;14.17;;
16294;SDS011;8255;49.560;8.244;2022-11-20T09:29:12;18.57;;;13.80;;
16294;SDS011;8255;49.560;8.244;2022-11-20T09:31:39;19.37;;;13.60;;
16294;SDS011;8255;49.560;8.244;2022-11-20T09:34:06;18.87;;;13.47;;
16294;SDS011;8255;49.560;8.244;2022-11-20T09:36:32;21.33;;;13.80;;
16294;SDS011;8255;49.560;8.244;2022-11-20T09:38:59;19.40;;;13.97;;
16294;SDS011;8255;49.560;8.244;2022-11-20T09:41:38;18.77;;;13.10;;
16294;SDS011;8255;49.560;8.244;2022-11-20T09:44:11;19.97;;;14.43;;
16294;SDS011;8255;49.560;8.244;2022-11-20T09:46:45;18.60;;;13.90;;
16294;SDS011;8255;49.560;8.244;2022-11-20T09:49:18;18.93;;;13.97;;
16294;SDS011;8255;49.560;8.244;2022-11-20T09:51:49;18.50;;;13.33;;
16294;SDS011;8255;49.560;8.244;2022-11-20T09:54:20;19.03;;;13.70;;
16294;SDS011;8255;49.560;8.244;2022-11-20T09:56:47;20.40;;;13.57;;
16294;SDS011;8255;49.560;8.244;2022-11-20T09:59:20;21.40;;;14.63;;
16294;SDS011;8255;49.560;8.244;2022-11-20T10:01:51;22.40;;;15.00;;
16294;SDS011;8255;49.560;8.244;2022-11-20T10:04:17;20.77;;;15.00;;
16294;SDS011;8255;49.560;8.244;2022-11-20T10:06:47;19.40;;;13.93;;
16294;SDS011;8255;49.560;8.244;2022-11-20T10:09:18;18.13;;;13.40;;
16294;SDS011;8255;49.560;8.244;2022-11-20T10:11:48;20.90;;;14.67;;
16294;SDS011;8255;49.560;8.244;2022-11-20T10:14:20;18.93;;;13.53;;
16294;SDS011;8255;49.560;8.244;2022-11-20T10:16:52;19.50;;;14.20;;
16294;SDS011;8255;49.560;8.244;2022-11-20T10:19:25;19.87;;;14.07;;
16294;SDS011;8255;49.560;8.244;2022-11-20T10:21:56;19.97;;;14.57;;
16294;SDS011;8255;49.560;8.244;2022-11-20T10:24:28;18.60;;;13.73;;
16294;SDS011;8255;49.560;8.244;2022-11-20T10:26:58;20.53;;;14.80;;
16294;SDS011;8255;49.560;8.244;2022-11-20T10:29:28;18.20;;;14.07;;
16294;SDS011;8255;49.560;8.244;2022-11-20T10:31:57;20.30;;;14.80;;
16294;SDS011;8255;49.560;8.244;2022-11-20T10:34:28;18.33;;;14.00;;
16294;SDS011;8255;49.560;8.244;2022-11-20T10:36:55;17.90;;;13.60;;
16294;SDS011;8255;49.560;8.244;2022-11-20T10:39:24;19.60;;;13.23;;
16294;SDS011;8255;49.560;8.244;2022-11-20T10:41:53;17.37;;;13.67;;
16294;SDS011;8255;49.560;8.244;2022-11-20T10:44:20;18.60;;;14.23;;
16294;SDS011;8255;49.560;8.244;2022-11-20T10:47:11;20.20;;;14.23;;
16294;SDS011;8255;49.560;8.244;2022-11-20T10:49:38;19.60;;;14.27;;
16294;SDS011;8255;49.560;8.244;2022-11-20T10:52:07;22.93;;;15.10;;
16294;SDS011;8255;49.560;8.244;2022-11-20T10:54:36;18.13;;;13.80;;
16294;SDS011;8255;49.560;8.244;2022-11-20T10:57:07;18.63;;;13.80;;
16294;SDS011;8255;49.560;8.244;2022-11-20T10:59:41;20.10;;;15.23;;
16294;SDS011;8255;49.560;8.244;2022-11-20T11:02:16;20.57;;;13.90;;
16294;SDS011;8255;49.560;8.244;2022-11-20T11:04:44;32.00;;;22.33;;
16294;SDS011;8255;49.560;8.244;2022-11-20T11:07:12;18.77;;;14.17;;
16294;SDS011;8255;49.560;8.244;2022-11-20T11:09:39;19.70;;;15.67;;
16294;SDS011;8255;49.560;8.244;2022-11-20T11:12:07;16.67;;;13.73;;
16294;SDS011;8255;49.560;8.244;2022-11-20T11:14:41;16.70;;;13.13;;
16294;SDS011;8255;49.560;8.244;2022-11-20T11:17:18;17.38;;;13.07;;
16294;SDS011;8255;49.560;8.244;2022-11-20T11:19:45;18.42;;;12.65;;
16294;SDS011;8255;49.560;8.244;2022-11-20T11:22:22;16.93;;;13.00;;
16294;SDS011;8255;49.560;8.244;2022-11-20T11:24:51;14.68;;;11.27;;
16294;SDS011;8255;49.560;8.244;2022-11-20T11:27:19;17.95;;;14.15;;
16294;SDS011;8255;49.560;8.244;2022-11-20T11:29:46;17.02;;;14.40;;
16294;SDS011;8255;49.560;8.244;2022-11-20T11:32:13;18.58;;;14.48;;
16294;SDS011;8255;49.560;8.244;2022-11-20T11:34:41;17.33;;;13.40;;
16294;SDS011;8255;49.560;8.244;2022-11-20T11:37:10;19.42;;;14.40;;
16294;SDS011;8255;49.560;8.244;2022-11-20T11:39:39;18.67;;;14.40;;
16294;SDS011;8255;49.560;8.244;2022-11-20T11:42:07;17.38;;;13.95;;
16294;SDS011;8255;49.560;8.244;2022-11-20T11:44:36;18.20;;;14.10;;
16294;SDS011;8255;49.560;8.244;2022-11-20T11:47:21;18.90;;;14.60;;
16294;SDS011;8255;49.560;8.244;2022-11-20T11:49:50;18.58;;;14.40;;
16294;SDS011;8255;49.560;8.244;2022-11-20T11:52:26;17.70;;;13.27;;
16294;SDS011;8255;49.560;8.244;2022-11-20T11:54:53;18.27;;;13.70;;
16294;SDS011;8255;49.560;8.244;2022-11-20T11:57:20;18.43;;;13.40;;
16294;SDS011;8255;49.560;8.244;2022-11-20T11:59:53;17.87;;;13.00;;
16294;SDS011;8255;49.560;8.244;2022-11-20T12:02:28;16.37;;;12.67;;
16294;SDS011;8255;49.560;8.244;2022-11-20T12:04:58;19.43;;;12.90;;
16294;SDS011;8255;49.560;8.244;2022-11-20T12:07:29;16.63;;;12.83;;
16294;SDS011;8255;49.560;8.244;2022-11-20T12:09:58;17.90;;;12.87;;
16294;SDS011;8255;49.560;8.244;2022-11-20T12:14:55;18.73;;;13.63;;
16294;SDS011;8255;49.560;8.244;2022-11-20T12:17:22;18.53;;;15.00;;
16294;SDS011;8255;49.560;8.244;2022-11-20T12:19:49;22.20;;;16.53;;
16294;SDS011;8255;49.560;8.244;2022-11-20T12:22:19;23.73;;;17.27;;
16294;SDS011;8255;49.560;8.244;2022-11-20T12:24:51;19.07;;;15.37;;
16294;SDS011;8255;49.560;8.244;2022-11-20T12:27:29;18.63;;;14.07;;
16294;SDS011;8255;49.560;8.244;2022-11-20T12:30:03;18.13;;;14.07;;
16294;SDS011;8255;49.560;8.244;2022-11-20T12:32:33;18.20;;;14.05;;
16294;SDS011;8255;49.560;8.244;2022-11-20T12:35:03;18.00;;;14.50;;
16294;SDS011;8255;49.560;8.244;2022-11-20T12:37:35;19.27;;;13.87;;
16294;SDS011;8255;49.560;8.244;2022-11-20T12:40:08;19.27;;;14.32;;
16294;SDS011;8255;49.560;8.244;2022-11-20T12:42:42;19.90;;;13.35;;
16294;SDS011;8255;49.560;8.244;2022-11-20T12:45:48;22.90;;;16.73;;
16294;SDS011;8255;49.560;8.244;2022-11-20T12:48:35;22.97;;;16.37;;
16294;SDS011;8255;49.560;8.244;2022-11-20T12:51:07;17.30;;;13.23;;
16294;SDS011;8255;49.560;8.244;2022-11-20T12:53:43;17.27;;;11.85;;
16294;SDS011;8255;49.560;8.244;2022-11-20T12:56:15;16.27;;;11.20;;
16294;SDS011;8255;49.560;8.244;2022-11-20T12:58:46;17.05;;;11.70;;
16294;SDS011;8255;49.560;8.244;2022-11-20T13:01:18;15.90;;;11.55;;
16294;SDS011;8255;49.560;8.244;2022-11-20T13:04:05;8.90;;;6.85;;
16294;SDS011;8255;49.560;8.244;2022-11-20T13:06:33;5.38;;;3.60;;
16294;SDS011;8255;49.560;8.244;2022-11-20T13:09:01;4.20;;;2.60;;
16294;SDS011;8255;49.560;8.244;2022-11-20T13:11:31;5.78;;;3.20;;
16294;SDS011;8255;49.560;8.244;2022-11-20T13:14:03;3.47;;;2.30;;
16294;SDS011;8255;49.560;8.244;2022-11-20T13:16:31;3.33;;;2.22;;
16294;SDS011;8255;49.560;8.244;2022-11-20T13:19:01;3.90;;;2.53;;
16294;SDS011;8255;49.560;8.244;2022-11-20T13:21:34;3.38;;;2.70;;
16294;SDS011;8255;49.560;8.244;2022-11-20T13:24:05;2.40;;;2.22;;
16294;SDS011;8255;49.560;8.244;2022-11-20T13:26:31;3.17;;;2.10;;
16294;SDS011;8255;49.560;8.244;2022-11-20T13:29:02;3.55;;;2.42;;
16294;SDS011;8255;49.560;8.244;2022-11-20T13:31:31;4.25;;;2.25;;
16294;SDS011;8255;49.560;8.244;2022-11-20T13:33:58;2.95;;;1.67;;
16294;SDS011;8255;49.560;8.244;2022-11-20T13:36:26;3.75;;;2.40;;
16294;SDS011;8255;49.560;8.244;2022-11-20T13:38:54;2.63;;;2.22;;
16294;SDS011;8255;49.560;8.244;2022-11-20T13:41:26;4.40;;;2.20;;
16294;SDS011;8255;49.560;8.244;2022-11-20T13:43:58;4.28;;;2.78;;
16294;SDS011;8255;49.560;8.244;2022-11-20T13:46:34;2.85;;;2.30;;
16294;SDS011;8255;49.560;8.244;2022-11-20T13:49:05;4.97;;;2.70;;
16294;SDS011;8255;49.560;8.244;2022-11-20T13:51:34;8.43;;;3.47;;
16294;SDS011;8255;49.560;8.244;2022-11-20T13:56:54;4.20;;;1.92;;
16294;SDS011;8255;49.560;8.244;2022-11-20T13:59:28;2.55;;;1.77;;
16294;SDS011;8255;49.560;8.244;2022-11-20T14:01:56;3.70;;;1.73;;
16294;SDS011;8255;49.560;8.244;2022-11-20T14:04:26;1.63;;;1.40;;
16294;SDS011;8255;49.560;8.244;2022-11-20T14:06:52;1.90;;;1.60;;
16294;SDS011;8255;49.560;8.244;2022-11-20T14:09:26;1.67;;;1.40;;
16294;SDS011;8255;49.560;8.244;2022-11-20T14:11:54;2.88;;;2.15;;
16294;SDS011;8255;49.560;8.244;2022-11-20T14:14:21;3.08;;;1.80;;
16294;SDS011;8255;49.560;8.244;2022-11-20T14:16:48;1.98;;;1.88;;
16294;SDS011;8255;49.560;8.244;2022-11-20T14:19:23;2.15;;;1.83;;
16294;SDS011;8255;49.560;8.244;2022-11-20T14:21:51;3.65;;;1.85;;
16294;SDS011;8255;49.560;8.244;2022-11-20T14:24:18;2.30;;;1.77;;
16294;SDS011;8255;49.560;8.244;2022-11-20T14:26:45;3.97;;;2.72;;
16294;SDS011;8255;49.560;8.244;2022-11-20T14:29:13;3.15;;;2.63;;
16294;SDS011;8255;49.560;8.244;2022-11-20T14:31:40;3.72;;;2.65;;
16294;SDS011;8255;49.560;8.244;2022-11-20T14:34:10;4.05;;;2.20;;
16294;SDS011;8255;49.560;8.244;2022-11-20T14:36:39;2.47;;;2.28;;
16294;SDS011;8255;49.560;8.244;2022-11-20T14:39:07;2.25;;;2.10;;
16294;SDS011;8255;49.560;8.244;2022-11-20T14:41:35;2.28;;;1.65;;
16294;SDS011;8255;49.560;8.244;2022-11-20T14:44:01;2.17;;;1.70;;
16294;SDS011;8255;49.560;8.244;2022-11-20T14:46:30;2.30;;;1.80;;
16294;SDS011;8255;49.560;8.244;2022-11-20T14:49:00;2.42;;;1.77;;
16294;SDS011;8255;49.560;8.244;2022-11-20T14:51:28;2.38;;;2.00;;
16294;SDS011;8255;49.560;8.244;2022-11-20T14:53:55;2.75;;;1.80;;